Panna Maria, Texas
Current Conditions -  °F | °C
As of 8:20 PM on Saturday 22 Nov 2014 (Local Time) from KPEZ Reporting Station
Thunderstorm Thunderstorm  
Wind Chill: 60°   Ceiling: 4500
Heat Index: 60°   Visibility: 7mi
Dew Point: 56°   Wind: 14mph
Humidity: 88%   Direction: 300°WNW
Pressure: 29.79"   Gusts: 26mph
Location:  28.96°N, 97.9°W
Report Text: KPEZ 230220Z AUTO 30012G23KT 7SM +TSRA SCT011 BKN045 OVC065 16/14 A2979 RMK AO2 LTG DSNT ALQS P0028 T01550135
Loading
Personal Weather Stations






























Interactive Weather Map New forecast layout! Learn more

10-Day Weather Forecast

Advertisements
Track Severe Weather on mobile